Time;durP1;ratioP1;P1;durP2;ratioP2;P2;SDS_P1;SDS_P2;PMS_P1;PMS_P2;Temp;Humidity;BMP_temperature;BMP_pressure;BME280_temperature;BME280_humidity;BME280_pressure;Samples;Min_cycle;Max_cycle;Signal;HPM_P1;HPM_P2
2022/12/03 00:00:39;;;;;;;38.90;26.15;;;3.70;99.90;;;;;;5017610;28;20387;-72
2022/12/03 00:03:05;;;;;;;37.13;24.00;;;3.70;99.90;;;;;;5017313;28;20092;-73
2022/12/03 00:05:30;;;;;;;36.13;23.63;;;3.80;99.90;;;;;;4984083;28;20049;-73
2022/12/03 00:07:56;;;;;;;37.00;23.90;;;3.80;99.90;;;;;;5017412;28;20038;-72
2022/12/03 00:10:22;;;;;;;34.50;22.52;;;3.90;99.90;;;;;;5000630;28;20073;-73
2022/12/03 00:12:47;;;;;;;35.05;23.92;;;3.90;99.90;;;;;;5017531;28;20176;-72
2022/12/03 00:15:13;;;;;;;35.88;23.05;;;4.10;99.90;;;;;;5017305;28;20358;-73
2022/12/03 00:17:39;;;;;;;34.80;22.08;;;4.00;99.90;;;;;;5017122;28;20153;-73
2022/12/03 00:20:10;;;;;;;36.17;22.55;;;4.00;99.90;;;;;;5017263;28;20373;-72
2022/12/03 00:22:35;;;;;;;33.70;22.23;;;4.00;99.90;;;;;;5004192;28;20069;-72
2022/12/03 00:25:01;;;;;;;33.78;21.10;;;4.00;99.90;;;;;;5017179;28;20449;-72
2022/12/03 00:27:27;;;;;;;35.30;22.55;;;4.00;99.90;;;;;;4999734;28;20045;-72
2022/12/03 00:29:52;;;;;;;33.55;21.63;;;4.10;99.90;;;;;;5016909;28;20045;-72
2022/12/03 00:32:18;;;;;;;33.00;21.23;;;4.10;99.90;;;;;;5016730;28;20117;-73
2022/12/03 00:34:43;;;;;;;28.92;20.17;;;4.10;99.90;;;;;;5017080;28;20042;-73
2022/12/03 00:37:09;;;;;;;31.30;20.98;;;4.10;99.90;;;;;;5017143;28;20044;-73
2022/12/03 00:39:34;;;;;;;29.30;20.95;;;4.10;99.90;;;;;;5016656;28;20096;-73
2022/12/03 00:42:00;;;;;;;28.85;20.02;;;4.20;99.90;;;;;;5016495;28;20081;-72
2022/12/03 00:44:26;;;;;;;29.33;19.55;;;4.20;99.90;;;;;;4983377;28;20124;-73
2022/12/03 00:46:51;;;;;;;28.75;20.40;;;4.20;99.90;;;;;;5016755;28;20042;-73
2022/12/03 00:49:17;;;;;;;26.85;19.25;;;4.20;99.90;;;;;;5016698;28;20049;-73
2022/12/03 00:51:42;;;;;;;30.55;20.20;;;4.10;99.90;;;;;;5016567;28;20069;-72
2022/12/03 00:54:08;;;;;;;28.50;19.98;;;4.20;99.90;;;;;;5016425;28;20355;-73
2022/12/03 00:56:33;;;;;;;25.40;18.63;;;4.10;99.90;;;;;;5016069;28;20045;-72
2022/12/03 00:58:59;;;;;;;28.15;20.33;;;4.20;99.90;;;;;;5016381;28;20060;-72
2022/12/03 01:01:25;;;;;;;27.20;19.70;;;4.20;99.90;;;;;;5016564;28;20501;-73
2022/12/03 01:03:50;;;;;;;26.65;20.17;;;4.20;99.90;;;;;;5016105;28;20038;-72
2022/12/03 01:06:19;;;;;;;26.50;19.30;;;4.20;99.90;;;;;;5016361;28;20046;-72
2022/12/03 01:08:44;;;;;;;24.80;19.02;;;4.20;99.90;;;;;;5016168;28;20375;-72
2022/12/03 01:11:36;;;;;;;26.77;19.27;;;4.20;99.90;;;;;;5016473;28;20053;-73
2022/12/03 01:13:55;;;;;;;26.02;19.85;;;4.10;99.90;;;;;;5015466;28;20139;-73
2022/12/03 01:16:21;;;;;;;30.33;20.48;;;4.10;99.90;;;;;;5016063;28;20081;-72
2022/12/03 01:18:47;;;;;;;28.38;21.23;;;4.10;99.90;;;;;;5016118;28;20116;-73
2022/12/03 01:21:12;;;;;;;28.30;20.77;;;4.10;99.90;;;;;;5016369;28;20069;-73
2022/12/03 01:23:38;;;;;;;27.50;19.92;;;4.10;99.90;;;;;;5015025;28;20153;-72
2022/12/03 01:26:04;;;;;;;30.98;21.88;;;4.10;99.90;;;;;;5016316;28;20049;-75
2022/12/03 01:28:30;;;;;;;25.40;19.58;;;4.00;99.90;;;;;;5013455;28;20084;-72
2022/12/03 01:33:56;;;;;;;28.65;20.75;;;3.90;99.90;;;;;;4966158;28;20128;-72
2022/12/03 01:36:22;;;;;;;26.27;20.27;;;3.90;99.90;;;;;;5015726;28;20037;-72
2022/12/03 01:38:48;;;;;;;28.58;20.60;;;3.90;99.90;;;;;;5015438;28;20133;-72
2022/12/03 01:41:15;;;;;;;27.33;20.13;;;3.80;99.90;;;;;;5015394;28;20037;-72
2022/12/03 01:43:41;;;;;;;28.80;21.42;;;3.80;99.90;;;;;;4997988;28;20382;-73
2022/12/03 01:46:09;;;;;;;26.10;19.80;;;3.70;99.90;;;;;;5015796;28;20046;-72
2022/12/03 01:48:37;;;;;;;28.70;20.80;;;3.90;99.90;;;;;;5015499;28;20050;-72
2022/12/03 01:51:02;;;;;;;26.35;20.58;;;3.80;99.90;;;;;;5015692;28;20049;-72
2022/12/03 01:53:28;;;;;;;27.60;20.67;;;3.80;99.90;;;;;;4983661;28;20041;-73
2022/12/03 01:55:57;;;;;;;28.90;21.33;;;3.80;99.90;;;;;;4993331;28;20042;-73
2022/12/03 01:58:26;;;;;;;25.85;19.67;;;3.80;99.90;;;;;;5015545;28;20038;-73
2022/12/03 02:00:52;;;;;;;26.17;20.50;;;3.80;99.90;;;;;;4998160;28;20060;-72
2022/12/03 02:03:22;;;;;;;27.50;20.67;;;3.80;99.90;;;;;;5015403;28;20443;-72
2022/12/03 02:05:48;;;;;;;27.17;20.60;;;3.80;99.90;;;;;;5015346;28;20501;-72
2022/12/03 02:08:30;;;;;;;27.70;21.75;;;3.80;99.90;;;;;;5014812;28;20042;-73
2022/12/03 02:11:09;;;;;;;28.30;20.20;;;3.80;99.90;;;;;;5015270;28;20053;-72
2022/12/03 02:13:35;;;;;;;29.10;21.35;;;3.80;99.90;;;;;;5015104;28;20052;-73
2022/12/03 02:16:01;;;;;;;29.42;21.00;;;3.80;99.90;;;;;;5015179;28;20457;-72
2022/12/03 02:18:27;;;;;;;28.33;21.95;;;4.10;99.90;;;;;;5015274;28;20061;-73
2022/12/03 02:21:07;;;;;;;29.25;21.13;;;3.80;99.90;;;;;;5015086;28;20042;-72
2022/12/03 02:23:52;;;;;;;28.38;21.92;;;3.90;99.90;;;;;;5014801;28;20111;-72
2022/12/03 02:26:18;;;;;;;27.80;21.25;;;3.80;99.90;;;;;;5014700;28;20069;-72
2022/12/03 02:28:43;;;;;;;29.65;21.15;;;3.90;99.90;;;;;;5014975;28;20454;-72
2022/12/03 02:31:09;;;;;;;29.83;21.88;;;3.90;99.90;;;;;;5014715;28;21157;-72
2022/12/03 02:33:35;;;;;;;26.85;20.38;;;3.80;99.90;;;;;;5014815;28;20042;-72
2022/12/03 02:36:00;;;;;;;30.95;22.13;;;3.90;99.90;;;;;;5015084;28;20048;-73
2022/12/03 02:38:29;;;;;;;27.30;21.73;;;3.80;99.90;;;;;;5014661;28;20454;-72
2022/12/03 02:41:01;;;;;;;28.70;21.73;;;3.80;99.90;;;;;;5014947;28;20038;-72
2022/12/03 02:43:26;;;;;;;28.35;22.23;;;3.80;99.90;;;;;;5014900;28;20046;-73
2022/12/03 02:45:58;;;;;;;30.83;21.58;;;3.80;99.90;;;;;;5002967;28;20073;-72
2022/12/03 02:48:38;;;;;;;28.55;22.10;;;3.90;99.90;;;;;;5013963;28;20055;-72
2022/12/03 02:51:07;;;;;;;28.20;21.73;;;3.90;99.90;;;;;;5014573;28;20112;-72
2022/12/03 02:53:46;;;;;;;29.08;22.17;;;3.90;99.90;;;;;;5014892;28;20136;-72
2022/12/03 02:56:21;;;;;;;29.23;22.35;;;3.80;99.90;;;;;;5014785;28;20046;-72
2022/12/03 02:58:50;;;;;;;31.95;21.95;;;3.90;99.90;;;;;;4997518;28;20065;-72
2022/12/03 03:01:19;;;;;;;27.73;21.02;;;3.80;99.90;;;;;;5014657;28;20505;-72
2022/12/03 03:03:46;;;;;;;28.73;21.77;;;3.80;99.90;;;;;;5014736;28;20069;-72
2022/12/03 03:06:14;;;;;;;29.00;22.50;;;3.90;99.90;;;;;;5014574;28;20052;-72
2022/12/03 03:08:41;;;;;;;32.05;23.55;;;3.80;99.90;;;;;;5013858;28;20041;-72
2022/12/03 03:11:07;;;;;;;29.10;21.55;;;3.80;99.90;;;;;;5014645;28;20120;-72
2022/12/03 03:13:34;;;;;;;29.08;22.27;;;3.80;99.90;;;;;;5014764;28;20089;-72
2022/12/03 03:16:02;;;;;;;29.95;22.33;;;3.80;99.90;;;;;;5014662;28;20100;-73
2022/12/03 03:18:28;;;;;;;32.60;22.85;;;4.30;99.90;;;;;;5014767;28;20454;-72
2022/12/03 03:20:54;;;;;;;29.95;22.00;;;4.30;99.90;;;;;;5014855;28;20112;-72
2022/12/03 03:23:22;;;;;;;30.95;22.65;;;3.80;99.90;;;;;;5012401;28;20061;-73
2022/12/03 03:26:04;;;;;;;27.88;20.73;;;3.80;99.90;;;;;;5014863;28;20042;-73
2022/12/03 03:28:31;;;;;;;30.00;21.83;;;3.90;99.90;;;;;;5014322;28;20084;-73
2022/12/03 03:31:00;;;;;;;29.77;21.80;;;3.90;99.90;;;;;;5014666;28;20049;-72
2022/12/03 03:33:25;;;;;;;30.27;22.45;;;3.80;99.90;;;;;;4996689;28;20046;-73
2022/12/03 03:35:52;;;;;;;27.42;21.40;;;3.80;99.90;;;;;;5014285;28;20061;-72
2022/12/03 03:38:19;;;;;;;29.08;21.75;;;3.80;99.90;;;;;;5014292;28;20033;-72
2022/12/03 03:40:47;;;;;;;30.48;21.88;;;3.80;99.90;;;;;;5014694;28;20046;-73
2022/12/03 03:43:13;;;;;;;30.60;21.88;;;3.80;99.90;;;;;;5014220;28;20056;-72
2022/12/03 03:45:38;;;;;;;28.58;22.13;;;3.80;99.90;;;;;;5014796;28;20050;-72
2022/12/03 03:48:04;;;;;;;28.33;21.45;;;3.90;99.90;;;;;;5017254;28;20489;-72
2022/12/03 03:50:31;;;;;;;30.85;22.42;;;3.80;99.90;;;;;;5017703;28;20034;-73
2022/12/03 03:52:58;;;;;;;29.63;22.33;;;3.80;99.90;;;;;;5017613;28;20060;-72
2022/12/03 03:55:24;;;;;;;29.05;21.80;;;3.80;99.90;;;;;;5017514;28;20529;-73
2022/12/03 03:57:52;;;;;;;30.40;22.38;;;3.80;99.90;;;;;;5000429;28;20431;-73
2022/12/03 04:00:18;;;;;;;28.85;22.60;;;3.80;99.90;;;;;;5017828;28;20073;-73
2022/12/03 04:02:44;;;;;;;28.58;20.77;;;3.80;99.90;;;;;;5017285;28;20466;-73
2022/12/03 04:05:19;;;;;;;28.63;21.75;;;3.80;99.90;;;;;;5017654;28;20132;-73
2022/12/03 04:07:45;;;;;;;30.35;22.67;;;3.70;99.90;;;;;;5017395;28;20046;-73
2022/12/03 04:12:59;;;;;;;30.08;22.60;;;3.80;99.90;;;;;;5017554;28;20378;-72
2022/12/03 04:15:27;;;;;;;28.23;22.35;;;3.70;99.90;;;;;;5000040;28;20049;-74
2022/12/03 04:20:37;;;;;;;28.40;21.92;;;3.70;99.90;;;;;;5017305;28;20129;-73
2022/12/03 04:23:03;;;;;;;29.77;21.55;;;3.60;99.90;;;;;;5017120;28;20075;-73
2022/12/03 04:30:59;;;;;;;29.05;21.95;;;3.70;99.90;;;;;;5016777;28;20077;-72
2022/12/03 04:36:09;;;;;;;29.20;22.27;;;3.70;99.90;;;;;;5017072;28;20073;-72
2022/12/03 04:38:34;;;;;;;27.88;21.13;;;3.60;99.90;;;;;;5016846;28;20473;-72
2022/12/03 04:41:00;;;;;;;29.50;22.23;;;3.70;99.90;;;;;;5016922;28;20050;-73
2022/12/03 04:43:33;;;;;;;29.67;22.58;;;3.70;99.90;;;;;;5016876;28;20171;-72
2022/12/03 04:46:00;;;;;;;29.70;22.63;;;3.70;99.90;;;;;;5016925;28;20068;-74
2022/12/03 04:48:26;;;;;;;30.35;22.80;;;3.70;99.90;;;;;;5016715;28;20472;-73
2022/12/03 04:50:52;;;;;;;30.40;21.95;;;3.60;99.90;;;;;;5003116;28;20384;-72
2022/12/03 04:53:17;;;;;;;29.33;22.25;;;3.60;99.90;;;;;;5016311;28;20046;-73
2022/12/03 04:55:43;;;;;;;31.25;22.48;;;3.60;99.90;;;;;;4999590;28;20459;-73
2022/12/03 04:58:09;;;;;;;31.65;23.13;;;3.60;99.90;;;;;;5015466;28;20335;-72
2022/12/03 05:00:35;;;;;;;28.77;21.83;;;3.60;99.90;;;;;;5016199;28;20125;-72
2022/12/03 05:03:01;;;;;;;31.60;22.75;;;3.60;99.90;;;;;;5016027;28;20124;-73
2022/12/03 05:05:26;;;;;;;31.77;23.13;;;3.60;99.90;;;;;;5016508;28;20370;-73
2022/12/03 05:07:52;;;;;;;30.25;22.88;;;3.60;99.90;;;;;;5016658;28;20125;-73
2022/12/03 05:10:18;;;;;;;31.63;22.35;;;3.60;99.90;;;;;;5002933;28;20367;-73
2022/12/03 05:12:43;;;;;;;29.50;23.20;;;3.60;99.90;;;;;;5015444;28;20111;-72
2022/12/03 05:15:09;;;;;;;30.20;22.77;;;3.60;99.90;;;;;;5016224;28;20053;-72
2022/12/03 05:17:34;;;;;;;29.90;22.38;;;3.50;99.90;;;;;;5014185;28;20048;-72
2022/12/03 05:22:44;;;;;;;33.17;23.27;;;3.50;99.90;;;;;;5015723;28;20046;-72
2022/12/03 05:25:09;;;;;;;31.08;23.63;;;3.50;99.90;;;;;;5016351;28;20038;-73
2022/12/03 05:27:35;;;;;;;29.90;23.08;;;3.50;99.90;;;;;;5016076;28;20192;-73
2022/12/03 05:30:01;;;;;;;31.55;22.63;;;3.50;99.90;;;;;;5016042;28;20038;-72
2022/12/03 05:32:27;;;;;;;33.25;24.17;;;3.50;99.90;;;;;;5015999;28;20045;-70
2022/12/03 05:34:52;;;;;;;33.55;23.67;;;3.50;99.90;;;;;;5015843;28;20434;-72
2022/12/03 05:37:18;;;;;;;34.35;24.15;;;3.40;99.90;;;;;;5015746;28;20522;-72
2022/12/03 05:39:43;;;;;;;31.88;23.98;;;3.50;99.90;;;;;;5015582;28;20366;-72
2022/12/03 05:44:53;;;;;;;32.88;24.67;;;3.50;99.90;;;;;;5012464;28;20045;-72
2022/12/03 05:47:19;;;;;;;30.67;23.15;;;3.40;99.90;;;;;;5015715;28;20053;-73
2022/12/03 05:49:45;;;;;;;30.92;22.98;;;3.40;99.90;;;;;;5015196;28;20073;-72
2022/12/03 05:52:10;;;;;;;33.45;23.42;;;3.40;99.90;;;;;;5015220;28;20085;-72
2022/12/03 05:54:36;;;;;;;31.10;22.23;;;3.40;99.90;;;;;;5015638;28;20038;-73
2022/12/03 05:57:02;;;;;;;31.90;23.13;;;3.40;99.90;;;;;;5015633;28;20406;-73
2022/12/03 05:59:27;;;;;;;32.88;23.27;;;3.30;99.90;;;;;;5015173;28;20037;-73
2022/12/03 06:01:53;;;;;;;31.55;22.55;;;3.30;99.90;;;;;;5015513;28;20041;-73
2022/12/03 06:04:18;;;;;;;35.33;22.90;;;3.30;99.90;;;;;;4998423;28;20050;-73
2022/12/03 06:06:44;;;;;;;33.20;24.23;;;3.30;99.90;;;;;;5015666;28;20052;-74
2022/12/03 06:09:12;;;;;;;32.30;23.40;;;3.30;99.90;;;;;;5015219;28;20439;-73
2022/12/03 06:11:39;;;;;;;31.05;22.75;;;3.20;99.90;;;;;;4997662;28;20137;-72
2022/12/03 06:14:05;;;;;;;32.75;23.27;;;3.30;99.90;;;;;;5014938;28;20493;-73
2022/12/03 06:16:30;;;;;;;31.10;22.52;;;3.20;99.90;;;;;;5015485;28;20045;-75
2022/12/03 06:18:56;;;;;;;31.95;23.10;;;3.20;99.90;;;;;;4997634;28;20370;-73
2022/12/03 06:21:22;;;;;;;30.42;22.45;;;3.30;99.90;;;;;;5015544;28;20034;-72
2022/12/03 06:23:47;;;;;;;32.92;23.33;;;3.20;99.90;;;;;;5014831;28;20124;-73
2022/12/03 06:26:13;;;;;;;32.13;21.88;;;3.10;99.90;;;;;;5015094;28;20046;-72
2022/12/03 06:28:40;;;;;;;29.35;21.65;;;3.10;99.90;;;;;;5014739;28;20042;-73
2022/12/03 06:31:05;;;;;;;33.78;22.13;;;3.10;99.90;;;;;;5014670;28;20038;-73
2022/12/03 06:33:31;;;;;;;32.28;21.73;;;3.10;99.90;;;;;;5015726;28;20034;-73
2022/12/03 06:35:57;;;;;;;33.13;22.63;;;3.10;99.90;;;;;;5015176;28;20113;-73
2022/12/03 06:38:22;;;;;;;31.58;21.48;;;3.10;99.90;;;;;;5015063;28;20112;-73
2022/12/03 06:40:48;;;;;;;31.13;21.55;;;3.10;99.90;;;;;;5015206;28;20033;-74
2022/12/03 06:43:14;;;;;;;31.50;22.17;;;3.10;99.90;;;;;;5015328;28;20125;-74
2022/12/03 06:45:39;;;;;;;30.52;21.77;;;3.10;99.90;;;;;;5015044;28;20041;-74
2022/12/03 06:48:05;;;;;;;32.90;23.02;;;3.10;99.90;;;;;;5015067;28;20108;-74
2022/12/03 06:50:31;;;;;;;33.75;22.25;;;3.10;99.90;;;;;;5014610;28;20120;-73
2022/12/03 06:52:56;;;;;;;32.53;22.08;;;3.10;99.90;;;;;;5015034;28;20038;-74
2022/12/03 06:55:22;;;;;;;33.45;22.30;;;3.10;99.90;;;;;;5015254;28;20096;-73
2022/12/03 06:57:47;;;;;;;32.95;22.75;;;3.10;99.90;;;;;;5015063;28;20053;-74
2022/12/03 07:00:13;;;;;;;30.42;22.15;;;3.50;99.90;;;;;;5014573;28;20042;-73
2022/12/03 07:02:39;;;;;;;29.70;21.42;;;3.10;99.90;;;;;;5015065;28;20141;-73
2022/12/03 07:05:05;;;;;;;32.53;22.73;;;3.00;99.90;;;;;;5014873;28;20513;-74
2022/12/03 07:07:31;;;;;;;32.45;23.25;;;3.00;99.90;;;;;;5014849;28;20359;-73
2022/12/03 07:09:56;;;;;;;32.40;22.83;;;3.10;99.90;;;;;;5015429;28;20034;-74
2022/12/03 07:12:22;;;;;;;32.03;23.85;;;3.10;99.90;;;;;;4997923;28;20058;-72
2022/12/03 07:14:48;;;;;;;34.15;23.73;;;3.00;99.90;;;;;;5014698;28;20358;-72
2022/12/03 07:17:13;;;;;;;34.47;23.73;;;3.00;99.90;;;;;;5014678;28;20033;-72
2022/12/03 07:19:39;;;;;;;31.55;22.65;;;3.00;99.90;;;;;;4997511;28;20096;-73
2022/12/03 07:22:05;;;;;;;32.25;22.45;;;3.00;99.90;;;;;;5017057;28;20458;-73
2022/12/03 07:24:31;;;;;;;31.85;23.73;;;3.00;99.90;;;;;;5001064;28;20050;-73
2022/12/03 07:26:57;;;;;;;34.72;24.08;;;3.00;99.90;;;;;;5018311;28;20048;-73
2022/12/03 07:29:23;;;;;;;34.20;23.83;;;3.00;99.90;;;;;;5018115;28;20147;-73
2022/12/03 07:31:57;;;;;;;33.88;22.38;;;3.00;99.90;;;;;;5015189;28;20042;-72
2022/12/03 07:34:23;;;;;;;38.72;25.90;;;3.00;99.90;;;;;;5018417;28;20038;-72
2022/12/03 07:36:51;;;;;;;41.60;28.55;;;3.00;99.90;;;;;;5001257;28;20119;-72
2022/12/03 07:39:20;;;;;;;44.17;27.80;;;2.90;99.90;;;;;;5018360;28;20042;-72
2022/12/03 07:41:45;;;;;;;34.58;23.83;;;2.90;99.90;;;;;;5018192;28;20051;-72
2022/12/03 07:44:11;;;;;;;37.70;26.77;;;2.90;99.90;;;;;;5017760;28;20042;-72
2022/12/03 07:46:37;;;;;;;35.25;24.67;;;2.90;99.90;;;;;;5018029;28;20069;-72
2022/12/03 07:49:03;;;;;;;35.30;24.17;;;2.90;99.90;;;;;;5017844;28;20489;-73
2022/12/03 07:51:31;;;;;;;36.13;25.95;;;2.90;99.90;;;;;;5018150;28;20045;-73
2022/12/03 07:53:57;;;;;;;36.38;25.02;;;2.90;99.90;;;;;;5017768;28;20124;-73
2022/12/03 07:56:22;;;;;;;37.85;26.42;;;2.90;99.90;;;;;;5000840;28;20092;-72
2022/12/03 07:58:48;;;;;;;33.97;25.15;;;2.80;99.90;;;;;;5017734;28;20120;-74
2022/12/03 08:01:13;;;;;;;35.67;25.17;;;2.90;99.90;;;;;;5017515;28;20454;-73
2022/12/03 08:03:41;;;;;;;39.25;26.40;;;2.80;99.90;;;;;;5016605;28;20041;-72
2022/12/03 08:06:07;;;;;;;39.17;26.92;;;2.80;99.90;;;;;;5017779;28;20050;-71
2022/12/03 08:08:33;;;;;;;36.15;26.30;;;2.80;99.90;;;;;;5016656;28;20124;-73
2022/12/03 08:11:00;;;;;;;37.22;25.77;;;2.80;99.90;;;;;;5017632;28;20478;-73
2022/12/03 08:13:26;;;;;;;34.33;23.92;;;2.80;99.90;;;;;;5017401;28;20042;-73
2022/12/03 08:15:59;;;;;;;39.80;28.30;;;2.80;99.90;;;;;;5017417;28;20065;-73
2022/12/03 08:18:25;;;;;;;37.22;25.98;;;2.80;99.90;;;;;;5017190;28;20042;-73
2022/12/03 08:20:52;;;;;;;37.22;26.85;;;2.80;99.90;;;;;;4999725;28;20113;-73
2022/12/03 08:23:23;;;;;;;36.20;26.48;;;2.80;99.90;;;;;;5029200;28;20065;-73
2022/12/03 08:25:50;;;;;;;38.97;26.65;;;2.80;99.90;;;;;;5037073;28;20462;-73
2022/12/03 08:28:27;;;;;;;35.90;26.23;;;2.80;99.90;;;;;;5036908;28;20136;-73
2022/12/03 08:31:10;;;;;;;36.42;26.58;;;2.70;99.90;;;;;;5036919;28;20517;-73
2022/12/03 08:33:37;;;;;;;36.03;26.60;;;2.80;99.90;;;;;;5036754;28;20053;-73
2022/12/03 08:36:44;;;;;;;35.53;26.52;;;2.70;99.90;;;;;;5037034;28;20049;-73
2022/12/03 08:39:32;;;;;;;38.00;27.58;;;2.70;99.90;;;;;;5015629;28;20159;-74
2022/12/03 08:45:27;;;;;;;41.25;26.65;;;2.70;99.90;;;;;;5010565;28;20104;-73
2022/12/03 08:47:56;;;;;;;37.05;26.52;;;2.70;99.90;;;;;;5017121;28;20045;-73
2022/12/03 08:50:30;;;;;;;57.15;37.42;;;2.60;99.90;;;;;;5016913;28;20053;-73
2022/12/03 08:53:06;;;;;;;41.70;28.20;;;2.60;99.90;;;;;;5016648;28;20049;-73
2022/12/03 08:55:36;;;;;;;42.35;26.67;;;2.60;99.90;;;;;;4999851;28;20072;-74
2022/12/03 08:58:30;;;;;;;40.53;28.23;;;2.60;99.90;;;;;;5016731;28;20042;-73
2022/12/03 09:01:01;;;;;;;40.63;27.02;;;2.60;99.90;;;;;;5016643;28;20074;-73
2022/12/03 09:03:29;;;;;;;39.83;26.77;;;3.30;99.90;;;;;;5034764;28;20053;-73
2022/12/03 09:05:55;;;;;;;40.67;27.65;;;2.60;99.90;;;;;;5016209;28;20073;-73
2022/12/03 09:08:21;;;;;;;39.92;28.50;;;2.60;99.90;;;;;;5016896;28;20391;-74
2022/12/03 09:10:49;;;;;;;39.40;26.75;;;2.60;99.90;;;;;;5016474;28;20045;-73
2022/12/03 09:13:15;;;;;;;40.20;27.77;;;2.60;99.90;;;;;;5016343;28;20371;-73
2022/12/03 09:15:40;;;;;;;42.05;28.13;;;2.60;99.90;;;;;;5016508;28;20045;-73
2022/12/03 09:18:06;;;;;;;40.65;26.92;;;2.60;99.90;;;;;;4999241;28;20057;-73
2022/12/03 09:20:32;;;;;;;41.17;28.60;;;2.50;99.90;;;;;;5015912;28;20049;-73
2022/12/03 09:22:57;;;;;;;39.50;27.98;;;2.60;99.90;;;;;;5015976;28;20053;-73
2022/12/03 09:25:25;;;;;;;41.25;27.77;;;2.50;99.90;;;;;;4983112;28;20061;-74
2022/12/03 09:27:51;;;;;;;40.95;27.67;;;2.50;99.90;;;;;;4999161;28;20340;-73
2022/12/03 09:30:19;;;;;;;42.28;28.45;;;2.60;99.90;;;;;;5016154;28;20049;-73
2022/12/03 09:32:45;;;;;;;46.28;27.95;;;2.60;99.90;;;;;;4998772;28;20107;-73
2022/12/03 09:35:10;;;;;;;39.20;28.13;;;2.60;99.90;;;;;;5015749;28;20065;-73
2022/12/03 09:37:36;;;;;;;43.25;28.13;;;2.60;99.90;;;;;;5015941;28;20038;-73
2022/12/03 09:40:02;;;;;;;42.67;28.10;;;2.60;99.90;;;;;;5016137;28;20438;-72
2022/12/03 09:42:28;;;;;;;41.72;28.13;;;2.60;99.90;;;;;;5015989;28;20049;-74
2022/12/03 09:44:54;;;;;;;48.10;28.95;;;2.60;99.90;;;;;;5015246;28;20473;-73
2022/12/03 09:47:20;;;;;;;41.03;27.80;;;2.70;99.90;;;;;;5015777;28;20123;-73
2022/12/03 09:49:45;;;;;;;38.63;26.23;;;2.60;99.90;;;;;;5015597;28;20034;-74
2022/12/03 09:52:18;;;;;;;41.40;27.60;;;2.60;99.90;;;;;;5016026;28;20513;-73
2022/12/03 09:54:43;;;;;;;40.38;27.67;;;2.60;99.90;;;;;;5015890;28;20050;-73
2022/12/03 09:57:13;;;;;;;41.30;28.42;;;2.60;99.90;;;;;;5017862;28;20120;-73
2022/12/03 09:59:38;;;;;;;41.38;27.27;;;2.60;99.90;;;;;;5035528;28;20120;-73
2022/12/03 10:02:23;;;;;;;41.28;27.85;;;2.70;99.90;;;;;;5035314;28;20121;-73
2022/12/03 10:04:49;;;;;;;40.35;27.92;;;2.70;99.90;;;;;;5018592;28;20052;-73
2022/12/03 10:07:15;;;;;;;41.08;28.23;;;2.70;99.90;;;;;;5034801;28;20037;-73
2022/12/03 10:09:41;;;;;;;41.10;28.17;;;2.70;99.90;;;;;;5035288;28;20049;-73
2022/12/03 10:12:10;;;;;;;42.78;28.98;;;2.70;99.90;;;;;;5035271;28;20041;-73
2022/12/03 10:14:36;;;;;;;46.67;28.40;;;2.80;99.90;;;;;;5035386;28;20073;-73
2022/12/03 10:17:02;;;;;;;41.80;27.00;;;2.80;99.90;;;;;;5035009;28;20076;-73
2022/12/03 10:19:31;;;;;;;40.05;27.58;;;2.80;99.90;;;;;;5017635;28;20418;-73
2022/12/03 10:21:57;;;;;;;41.58;27.35;;;2.80;99.90;;;;;;5015414;28;20477;-73
2022/12/03 10:24:22;;;;;;;43.28;28.23;;;2.80;99.90;;;;;;5016006;28;20053;-73
2022/12/03 10:26:57;;;;;;;41.10;27.15;;;3.00;99.90;;;;;;4998550;28;20443;-73
2022/12/03 10:29:29;;;;;;;45.22;28.98;;;2.90;99.90;;;;;;5015179;28;20054;-73
2022/12/03 10:32:09;;;;;;;41.05;26.67;;;2.90;99.90;;;;;;5015637;28;20038;-73
2022/12/03 10:34:37;;;;;;;40.47;27.83;;;2.80;99.90;;;;;;5015114;28;20041;-73
2022/12/03 10:37:20;;;;;;;40.92;27.38;;;3.00;99.90;;;;;;5015158;28;20045;-73
2022/12/03 10:40:08;;;;;;;42.22;28.13;;;2.80;99.90;;;;;;5000477;28;20091;-73
2022/12/03 10:42:39;;;;;;;40.40;27.67;;;2.80;99.90;;;;;;5034816;28;20108;-73
2022/12/03 10:45:20;;;;;;;46.80;29.55;;;2.80;99.90;;;;;;5034683;28;20077;-73
2022/12/03 10:48:02;;;;;;;42.03;27.30;;;2.80;99.90;;;;;;5034712;28;20048;-73
2022/12/03 10:50:28;;;;;;;44.92;30.58;;;2.70;99.90;;;;;;5034484;28;20096;-73
2022/12/03 10:52:53;;;;;;;42.15;30.90;;;2.70;99.90;;;;;;5034808;28;20452;-73
2022/12/03 10:55:19;;;;;;;45.03;29.30;;;2.80;99.90;;;;;;5036435;28;20152;-72
2022/12/03 10:57:45;;;;;;;42.65;29.23;;;2.90;99.90;;;;;;5039037;28;20046;-73
2022/12/03 11:00:19;;;;;;;40.90;28.10;;;2.80;99.90;;;;;;5021714;28;20061;-73
2022/12/03 11:02:45;;;;;;;42.88;29.55;;;2.80;99.90;;;;;;5038608;28;20413;-73
2022/12/03 11:05:22;;;;;;;43.13;29.75;;;2.80;99.90;;;;;;5027593;28;20049;-73
2022/12/03 11:07:47;;;;;;;40.33;28.73;;;2.90;99.90;;;;;;5018766;28;20053;-73
2022/12/03 11:10:15;;;;;;;40.90;29.63;;;2.90;99.90;;;;;;5021164;28;20045;-73
2022/12/03 11:12:41;;;;;;;41.72;29.35;;;2.90;99.90;;;;;;5038605;28;20045;-73
2022/12/03 11:15:14;;;;;;;39.97;28.60;;;2.90;99.90;;;;;;5038348;28;20052;-73
2022/12/03 11:17:52;;;;;;;42.47;29.02;;;2.90;99.90;;;;;;5038319;28;20041;-72
2022/12/03 11:20:24;;;;;;;44.95;28.60;;;2.90;99.90;;;;;;5024202;28;20120;-73
2022/12/03 11:22:51;;;;;;;38.22;27.38;;;2.90;99.90;;;;;;5000799;28;20057;-73
2022/12/03 11:25:26;;;;;;;42.03;29.20;;;3.00;99.90;;;;;;5018418;28;20048;-73
2022/12/03 11:28:10;;;;;;;40.63;28.13;;;2.90;99.90;;;;;;5000887;28;20042;-73
2022/12/03 11:30:52;;;;;;;42.97;29.13;;;3.20;99.90;;;;;;5018347;28;20092;-73
2022/12/03 11:33:38;;;;;;;52.17;30.05;;;2.90;99.90;;;;;;5015956;28;20222;-73
2022/12/03 11:36:06;;;;;;;40.95;28.42;;;3.00;99.90;;;;;;4998643;28;20046;-73
2022/12/03 11:38:45;;;;;;;44.95;29.55;;;3.00;99.90;;;;;;4998481;28;20053;-72
2022/12/03 11:41:23;;;;;;;42.22;28.75;;;3.00;99.90;;;;;;5012273;28;20046;-73
2022/12/03 11:43:52;;;;;;;43.45;28.75;;;3.00;99.90;;;;;;5011425;28;20037;-73
2022/12/03 11:46:26;;;;;;;38.95;26.52;;;3.00;99.90;;;;;;5017746;28;20160;-73
2022/12/03 11:48:53;;;;;;;44.28;30.25;;;2.90;99.90;;;;;;4999245;28;20041;-73
2022/12/03 11:51:21;;;;;;;44.00;29.63;;;2.90;99.90;;;;;;4983040;28;20053;-73
2022/12/03 11:53:49;;;;;;;43.03;29.02;;;2.90;99.90;;;;;;4999912;28;20041;-72
2022/12/03 11:56:21;;;;;;;44.67;29.35;;;2.90;99.90;;;;;;5014271;28;20100;-73
2022/12/03 11:58:58;;;;;;;42.78;29.25;;;2.90;99.90;;;;;;5011375;28;20049;-73
2022/12/03 12:01:36;;;;;;;42.90;30.00;;;2.80;99.90;;;;;;5013125;28;20038;-73
2022/12/03 12:04:03;;;;;;;40.75;27.63;;;2.90;99.90;;;;;;5013646;28;20117;-73
2022/12/03 12:06:40;;;;;;;43.10;28.83;;;2.90;99.90;;;;;;5011210;28;20036;-72
2022/12/03 12:09:05;;;;;;;42.10;28.77;;;2.90;99.90;;;;;;5005646;28;20034;-74
2022/12/03 12:11:33;;;;;;;43.65;29.38;;;2.90;99.90;;;;;;5009926;28;20093;-71
2022/12/03 12:14:01;;;;;;;43.88;29.45;;;2.80;99.90;;;;;;5016212;28;20038;-74
2022/12/03 12:16:41;;;;;;;41.50;27.48;;;2.90;99.90;;;;;;5015738;28;20033;-74
2022/12/03 12:19:40;;;;;;;41.63;27.92;;;2.90;99.90;;;;;;5016169;28;20038;-73
2022/12/03 12:22:24;;;;;;;41.10;27.27;;;2.90;99.90;;;;;;5015197;28;20381;-73
2022/12/03 12:24:55;;;;;;;41.15;28.08;;;3.00;99.90;;;;;;5016026;28;20058;-73
2022/12/03 12:27:25;;;;;;;41.70;29.50;;;2.90;99.90;;;;;;5006740;28;20061;-72
2022/12/03 12:29:57;;;;;;;41.35;28.25;;;3.00;99.90;;;;;;5017065;28;20038;-74
2022/12/03 12:32:29;;;;;;;38.80;27.52;;;3.00;99.90;;;;;;4999609;28;20041;-72
2022/12/03 12:35:18;;;;;;;38.10;26.63;;;2.90;99.90;;;;;;5014576;28;20038;-74
2022/12/03 12:38:01;;;;;;;36.92;26.70;;;2.90;99.90;;;;;;5007508;28;20348;-74
2022/12/03 12:40:30;;;;;;;39.33;26.47;;;2.90;99.90;;;;;;5016568;28;20427;-74
2022/12/03 12:43:01;;;;;;;38.55;26.45;;;2.90;99.90;;;;;;5016386;28;20046;-74
2022/12/03 12:45:34;;;;;;;41.20;29.05;;;2.90;99.90;;;;;;5016565;28;20038;-74
2022/12/03 12:48:19;;;;;;;40.03;26.98;;;2.90;99.90;;;;;;5016850;28;20088;-73
2022/12/03 12:50:47;;;;;;;40.15;26.40;;;3.00;99.90;;;;;;5016548;28;20116;-73
2022/12/03 12:53:18;;;;;;;35.97;26.33;;;3.30;99.90;;;;;;5016614;28;20402;-74
2022/12/03 12:55:44;;;;;;;40.63;27.42;;;3.00;99.90;;;;;;5016404;28;20041;-74
2022/12/03 12:58:16;;;;;;;39.05;27.85;;;3.30;99.90;;;;;;5016517;28;20049;-74
2022/12/03 13:00:43;;;;;;;38.33;26.65;;;2.90;99.90;;;;;;5016352;28;20034;-73
2022/12/03 13:03:11;;;;;;;40.88;27.63;;;2.90;99.90;;;;;;4999224;28;20348;-74
2022/12/03 13:05:44;;;;;;;37.08;26.10;;;2.90;99.90;;;;;;5015255;28;20117;-74
2022/12/03 13:08:43;;;;;;;39.45;27.63;;;2.90;99.90;;;;;;5013206;28;20051;-72